createdAt,value
2022-09-17T00:01:39.085Z,8.80
2022-09-17T00:04:10.513Z,8.79
2022-09-17T00:06:37.614Z,8.79
2022-09-17T00:09:06.596Z,8.79
2022-09-17T00:11:36.808Z,8.81
2022-09-17T00:14:06.119Z,8.80
2022-09-17T00:16:48.464Z,8.80
2022-09-17T00:19:20.377Z,8.79
2022-09-17T00:21:55.050Z,8.78
2022-09-17T00:24:23.873Z,8.76
2022-09-17T00:26:52.065Z,8.77
2022-09-17T00:29:19.461Z,8.76
2022-09-17T00:31:46.532Z,8.77
2022-09-17T00:34:13.454Z,8.79
2022-09-17T00:36:45.163Z,8.76
2022-09-17T00:39:25.433Z,8.78
2022-09-17T00:41:55.008Z,8.79
2022-09-17T00:44:43.714Z,8.79
2022-09-17T00:47:46.046Z,8.80
2022-09-17T00:50:23.739Z,8.79
2022-09-17T00:53:07.027Z,8.80
2022-09-17T00:55:38.662Z,8.77
2022-09-17T00:58:28.747Z,8.79
2022-09-17T01:01:00.090Z,8.79
2022-09-17T01:03:27.566Z,8.78
2022-09-17T01:06:31.578Z,8.77
2022-09-17T01:09:07.597Z,8.75
2022-09-17T01:12:12.479Z,8.75
2022-09-17T01:15:19.709Z,8.73
2022-09-17T01:18:05.280Z,8.72
2022-09-17T01:21:16.384Z,8.71
2022-09-17T01:24:25.759Z,8.71
2022-09-17T01:27:45.015Z,8.71
2022-09-17T01:30:39.182Z,8.70
2022-09-17T01:33:25.070Z,8.69
2022-09-17T01:36:21.814Z,8.70
2022-09-17T01:39:13.770Z,8.69
2022-09-17T01:41:52.332Z,8.69
2022-09-17T01:44:33.265Z,8.67
2022-09-17T01:47:22.825Z,8.68
2022-09-17T01:50:01.875Z,8.68
2022-09-17T01:52:34.276Z,8.68
2022-09-17T01:55:07.410Z,8.67
2022-09-17T01:57:49.698Z,8.68
2022-09-17T02:00:21.888Z,8.66
2022-09-17T02:02:51.752Z,8.67
2022-09-17T02:05:47.370Z,8.67
2022-09-17T02:08:40.008Z,8.66
2022-09-17T02:11:15.339Z,8.65
2022-09-17T02:14:02.721Z,8.66
2022-09-17T02:16:37.762Z,8.65
2022-09-17T02:19:19.228Z,8.66
2022-09-17T02:22:09.200Z,8.68
2022-09-17T02:24:46.605Z,8.67
2022-09-17T02:27:45.275Z,8.66
2022-09-17T02:30:13.726Z,8.65
2022-09-17T02:32:42.481Z,8.65
2022-09-17T02:35:13.936Z,8.65
2022-09-17T02:37:42.952Z,8.63
2022-09-17T02:40:14.625Z,8.62
2022-09-17T02:42:54.018Z,8.62
2022-09-17T02:45:49.097Z,8.61
2022-09-17T02:48:31.596Z,8.62
2022-09-17T02:51:10.296Z,8.62
2022-09-17T02:53:58.119Z,8.62
2022-09-17T02:56:55.679Z,8.63
2022-09-17T02:59:45.131Z,8.63
2022-09-17T03:02:32.846Z,8.62
2022-09-17T03:05:06.224Z,8.61
2022-09-17T03:07:35.575Z,8.62
2022-09-17T03:10:02.754Z,8.62
2022-09-17T03:12:41.175Z,8.63
2022-09-17T03:15:13.714Z,8.62
2022-09-17T03:17:40.739Z,8.61
2022-09-17T03:20:08.518Z,8.63
2022-09-17T03:22:36.010Z,8.62
2022-09-17T03:25:03.031Z,8.62
2022-09-17T03:27:30.054Z,8.63
2022-09-17T03:29:57.914Z,8.62
2022-09-17T03:32:24.994Z,8.63
2022-09-17T03:34:51.887Z,8.64
2022-09-17T03:37:28.088Z,8.64
2022-09-17T03:40:17.749Z,8.65
2022-09-17T03:42:47.707Z,8.64
2022-09-17T03:45:19.226Z,8.63
2022-09-17T03:47:46.138Z,8.65
2022-09-17T03:50:13.100Z,8.63
2022-09-17T03:52:44.486Z,8.61
2022-09-17T03:55:14.676Z,8.65
2022-09-17T03:57:41.898Z,8.66
2022-09-17T04:00:09.632Z,8.63
2022-09-17T04:02:36.672Z,8.62
2022-09-17T04:05:05.615Z,8.61
2022-09-17T04:07:32.623Z,8.61
2022-09-17T04:10:01.846Z,8.61
2022-09-17T04:12:36.238Z,8.61
2022-09-17T04:15:04.133Z,8.61
2022-09-17T04:17:31.190Z,8.61
2022-09-17T04:20:01.605Z,8.61
2022-09-17T04:22:37.658Z,8.60
2022-09-17T04:25:04.895Z,8.57
2022-09-17T04:27:31.760Z,8.59
2022-09-17T04:29:58.793Z,8.59
2022-09-17T04:32:25.683Z,8.57
2022-09-17T04:34:52.538Z,8.56
2022-09-17T04:37:19.939Z,8.57
2022-09-17T04:39:46.795Z,8.56
2022-09-17T04:42:13.642Z,8.55
2022-09-17T04:44:40.589Z,8.56
2022-09-17T04:47:07.569Z,8.53
2022-09-17T04:49:34.482Z,8.50
2022-09-17T04:52:01.559Z,8.50
2022-09-17T04:54:32.574Z,8.50
2022-09-17T04:57:00.647Z,8.49
2022-09-17T04:59:27.709Z,8.48
2022-09-17T05:01:55.270Z,8.47
2022-09-17T05:04:22.201Z,8.46
2022-09-17T05:06:49.837Z,8.46
2022-09-17T05:09:20.865Z,8.44
2022-09-17T05:11:47.738Z,8.42
2022-09-17T05:14:14.705Z,8.43
2022-09-17T05:16:41.588Z,8.40
2022-09-17T05:19:08.548Z,8.39
2022-09-17T05:21:35.492Z,8.36
2022-09-17T05:24:02.643Z,8.35
2022-09-17T05:26:29.539Z,8.32
2022-09-17T05:28:56.502Z,8.34
2022-09-17T05:31:23.631Z,8.33
2022-09-17T05:33:50.501Z,8.33
2022-09-17T05:36:17.479Z,8.29
2022-09-17T05:38:44.376Z,8.30
2022-09-17T05:41:11.361Z,8.33
2022-09-17T05:43:38.388Z,8.34
2022-09-17T05:46:06.557Z,8.32
2022-09-17T05:48:33.563Z,8.31
2022-09-17T05:51:00.439Z,8.30
2022-09-17T05:53:32.040Z,8.32
2022-09-17T05:55:59.503Z,8.30
2022-09-17T05:58:27.210Z,8.30
2022-09-17T06:00:54.112Z,8.27
2022-09-17T06:03:22.805Z,8.30
2022-09-17T06:06:00.429Z,8.29
2022-09-17T06:08:28.806Z,8.30
2022-09-17T06:11:00.230Z,8.29
2022-09-17T06:13:29.118Z,8.31
2022-09-17T06:15:56.055Z,8.32
2022-09-17T06:18:23.142Z,8.32
2022-09-17T06:20:55.144Z,8.31
2022-09-17T06:23:22.332Z,8.32
2022-09-17T06:25:57.184Z,8.32
2022-09-17T06:28:25.031Z,8.31
2022-09-17T06:30:57.072Z,8.30
2022-09-17T06:33:24.140Z,8.29
2022-09-17T06:35:57.627Z,8.30
2022-09-17T06:38:24.460Z,8.29
2022-09-17T06:40:52.352Z,8.29
2022-09-17T06:43:20.034Z,8.30
2022-09-17T06:45:57.078Z,8.31
2022-09-17T06:48:25.622Z,8.31
2022-09-17T06:50:54.334Z,8.31
2022-09-17T06:53:22.007Z,8.36
2022-09-17T06:55:49.330Z,8.39
2022-09-17T06:58:16.379Z,8.40
2022-09-17T07:00:43.953Z,8.41
2022-09-17T07:03:10.883Z,8.43
2022-09-17T07:05:37.943Z,8.45
2022-09-17T07:08:04.919Z,8.47
2022-09-17T07:10:32.442Z,8.48
2022-09-17T07:12:59.458Z,8.51
2022-09-17T07:15:26.514Z,8.51
2022-09-17T07:17:53.709Z,8.51
2022-09-17T07:20:20.639Z,8.55
2022-09-17T07:22:56.473Z,8.61
2022-09-17T07:25:26.708Z,8.62
2022-09-17T07:27:53.988Z,8.65
2022-09-17T07:30:25.235Z,8.69
2022-09-17T07:32:52.269Z,8.72
2022-09-17T07:35:19.194Z,8.76
2022-09-17T07:37:46.448Z,8.81
2022-09-17T07:40:13.403Z,8.84
2022-09-17T07:42:40.769Z,8.89
2022-09-17T07:45:08.219Z,8.94
2022-09-17T07:47:40.548Z,8.96
2022-09-17T07:50:08.804Z,9.03
2022-09-17T07:52:35.899Z,9.06
2022-09-17T07:55:02.822Z,9.13
2022-09-17T07:57:29.669Z,9.19
2022-09-17T07:59:56.539Z,9.28
2022-09-17T08:02:24.559Z,9.32
2022-09-17T08:04:55.930Z,9.36
2022-09-17T08:07:22.892Z,9.42
2022-09-17T08:09:50.056Z,9.44
2022-09-17T08:12:19.460Z,9.49
2022-09-17T08:14:46.341Z,9.55
2022-09-17T08:17:18.038Z,9.59
2022-09-17T08:19:49.265Z,9.63
2022-09-17T08:22:16.284Z,9.63
2022-09-17T08:24:43.191Z,9.70
2022-09-17T08:27:10.068Z,9.74
2022-09-17T08:29:36.910Z,9.78
2022-09-17T08:32:03.929Z,9.82
2022-09-17T08:34:30.789Z,9.85
2022-09-17T08:36:57.816Z,9.92
2022-09-17T08:39:24.691Z,9.97
2022-09-17T08:42:17.823Z,10.06
2022-09-17T08:44:51.829Z,10.13
2022-09-17T08:47:36.386Z,10.16
2022-09-17T08:50:07.569Z,10.25
2022-09-17T08:53:11.981Z,10.31
2022-09-17T08:55:45.055Z,10.34
2022-09-17T08:58:30.007Z,10.38
2022-09-17T09:01:29.757Z,10.43
2022-09-17T09:04:20.903Z,10.50
2022-09-17T09:06:59.557Z,10.54
2022-09-17T09:09:31.880Z,10.59
2022-09-17T09:12:05.753Z,10.65
2022-09-17T09:14:51.243Z,10.71
2022-09-17T09:17:21.390Z,10.76
2022-09-17T09:19:50.009Z,10.81
2022-09-17T09:22:33.258Z,10.83
2022-09-17T09:25:27.230Z,10.91
2022-09-17T09:28:05.363Z,10.96
2022-09-17T09:31:06.642Z,11.06
2022-09-17T09:33:38.309Z,11.12
2022-09-17T09:36:14.342Z,11.15
2022-09-17T09:38:50.096Z,11.21
2022-09-17T09:41:27.059Z,11.24
2022-09-17T09:44:05.293Z,11.31
2022-09-17T09:46:54.570Z,11.38
2022-09-17T09:49:58.605Z,11.44
2022-09-17T09:52:50.375Z,11.50
2022-09-17T09:55:35.694Z,11.55
2022-09-17T09:58:17.887Z,11.59
2022-09-17T10:00:44.735Z,11.64
2022-09-17T10:03:22.123Z,11.64
2022-09-17T10:06:07.584Z,11.70
2022-09-17T10:08:40.258Z,11.72
2022-09-17T10:11:21.288Z,11.75
2022-09-17T10:13:48.344Z,11.77
2022-09-17T10:16:29.403Z,11.81
2022-09-17T10:19:05.849Z,11.83
2022-09-17T10:21:40.362Z,11.86
2022-09-17T10:24:22.125Z,11.96
2022-09-17T10:26:50.068Z,11.96
2022-09-17T10:29:20.114Z,11.93
2022-09-17T10:31:49.521Z,11.89
2022-09-17T10:34:25.992Z,11.82
2022-09-17T10:36:53.511Z,11.79
2022-09-17T10:39:35.014Z,11.80
2022-09-17T10:42:15.102Z,11.81
2022-09-17T10:44:53.520Z,11.84
2022-09-17T10:47:30.434Z,11.91
2022-09-17T10:50:24.428Z,11.93
2022-09-17T10:52:55.610Z,11.93
2022-09-17T10:55:33.522Z,11.91
2022-09-17T10:58:09.524Z,11.92
2022-09-17T11:00:55.001Z,11.94
2022-09-17T11:03:43.502Z,11.98
2022-09-17T11:06:51.902Z,12.00
2022-09-17T11:09:40.138Z,12.01
2022-09-17T11:12:28.726Z,12.00
2022-09-17T11:15:14.649Z,12.04
2022-09-17T11:18:04.034Z,12.03
2022-09-17T11:20:55.628Z,12.03
2022-09-17T11:23:47.943Z,11.97
2022-09-17T11:26:59.352Z,11.96
2022-09-17T11:29:44.280Z,11.89
2022-09-17T11:32:14.116Z,11.82
2022-09-17T11:34:58.758Z,11.79
2022-09-17T11:37:37.436Z,11.72
2022-09-17T11:40:04.890Z,11.68
2022-09-17T11:42:55.807Z,11.66
2022-09-17T11:46:11.855Z,11.66
2022-09-17T11:48:50.881Z,11.65
2022-09-17T11:51:25.252Z,11.66
2022-09-17T11:54:27.649Z,11.69
2022-09-17T11:57:09.936Z,11.70
2022-09-17T12:00:06.428Z,11.74
2022-09-17T12:02:49.027Z,11.75
2022-09-17T12:05:36.409Z,11.78
2022-09-17T12:08:25.155Z,11.78
2022-09-17T12:11:14.754Z,11.81
2022-09-17T12:14:14.383Z,11.86
2022-09-17T12:16:46.456Z,11.90
2022-09-17T12:19:39.787Z,11.96
2022-09-17T12:22:15.690Z,12.00
2022-09-17T12:24:43.232Z,12.03
2022-09-17T12:27:23.792Z,12.01
2022-09-17T12:30:22.747Z,11.93
2022-09-17T12:33:13.653Z,11.75
2022-09-17T12:36:05.908Z,11.64
2022-09-17T12:39:04.261Z,11.54
2022-09-17T12:41:40.003Z,11.44
2022-09-17T12:44:19.969Z,11.40
2022-09-17T12:47:08.211Z,11.35
2022-09-17T12:49:48.146Z,11.31
2022-09-17T12:52:35.593Z,11.32
2022-09-17T12:55:12.030Z,11.31
2022-09-17T12:58:06.269Z,11.27
2022-09-17T13:00:46.229Z,11.22
2022-09-17T13:03:49.286Z,11.20
2022-09-17T13:06:53.674Z,11.21
2022-09-17T13:09:43.914Z,11.18
2022-09-17T13:12:29.830Z,11.18
2022-09-17T13:15:05.749Z,11.16
2022-09-17T13:18:23.760Z,11.16
2022-09-17T13:21:15.114Z,11.16
2022-09-17T13:23:49.581Z,11.14
2022-09-17T13:26:19.939Z,11.14
2022-09-17T13:28:49.388Z,11.15
2022-09-17T13:31:22.258Z,11.18
2022-09-17T13:34:00.592Z,11.19
2022-09-17T13:36:33.773Z,11.20
2022-09-17T13:39:03.712Z,11.22
2022-09-17T13:41:35.802Z,11.25
2022-09-17T13:44:08.225Z,11.26
2022-09-17T13:46:36.767Z,11.31
2022-09-17T13:49:13.548Z,11.33
2022-09-17T13:51:40.488Z,11.34
2022-09-17T13:54:10.532Z,11.34
2022-09-17T13:56:50.831Z,11.33
2022-09-17T13:59:27.781Z,11.32
2022-09-17T14:02:03.519Z,11.29
2022-09-17T14:04:51.689Z,11.27
2022-09-17T14:07:21.316Z,11.23
2022-09-17T14:09:58.410Z,11.14
2022-09-17T14:12:59.032Z,11.05
2022-09-17T14:15:41.376Z,11.03
2022-09-17T14:18:27.427Z,11.04
2022-09-17T14:21:14.730Z,11.03
2022-09-17T14:23:56.484Z,11.04
2022-09-17T14:26:49.114Z,11.08
2022-09-17T14:29:52.802Z,11.02
2022-09-17T14:32:30.151Z,10.98
2022-09-17T14:34:57.635Z,10.94
2022-09-17T14:37:24.800Z,10.92
2022-09-17T14:39:52.345Z,10.89
2022-09-17T14:42:29.751Z,10.90
2022-09-17T14:45:04.988Z,10.88
2022-09-17T14:47:31.991Z,10.90
2022-09-17T14:50:25.323Z,10.95
2022-09-17T14:52:54.518Z,10.95
2022-09-17T14:55:29.754Z,11.00
2022-09-17T14:57:59.103Z,11.00
2022-09-17T15:00:33.040Z,11.01
2022-09-17T15:03:00.129Z,11.02
2022-09-17T15:05:34.202Z,11.03
2022-09-17T15:08:10.080Z,11.06
2022-09-17T15:10:49.202Z,11.07
2022-09-17T15:13:20.941Z,11.07
2022-09-17T15:16:13.690Z,11.07
2022-09-17T15:18:43.925Z,11.08
2022-09-17T15:21:24.525Z,11.02
2022-09-17T15:23:54.819Z,11.00
2022-09-17T15:26:29.101Z,10.99
2022-09-17T15:28:57.771Z,11.01
2022-09-17T15:31:24.891Z,11.01
2022-09-17T15:33:52.243Z,11.02
2022-09-17T15:36:23.199Z,10.98
2022-09-17T15:38:51.399Z,11.00
2022-09-17T15:41:28.470Z,11.01
2022-09-17T15:44:28.468Z,11.01
2022-09-17T15:46:57.024Z,10.99
2022-09-17T15:49:27.083Z,10.99
2022-09-17T15:51:54.038Z,10.95
2022-09-17T15:54:32.285Z,11.00
2022-09-17T15:57:03.794Z,10.98
2022-09-17T15:59:33.648Z,10.99
2022-09-17T16:02:01.966Z,11.01
2022-09-17T16:04:34.166Z,11.01
2022-09-17T16:07:12.940Z,11.01
2022-09-17T16:09:41.710Z,10.98
2022-09-17T16:12:12.089Z,11.03
2022-09-17T16:14:43.153Z,11.03
2022-09-17T16:17:25.441Z,10.97
2022-09-17T16:19:52.822Z,10.95
2022-09-17T16:22:20.689Z,10.96
2022-09-17T16:24:47.566Z,10.94
2022-09-17T16:27:30.582Z,10.87
2022-09-17T16:30:06.593Z,10.86
2022-09-17T16:32:33.620Z,10.83
2022-09-17T16:35:00.835Z,10.83
2022-09-17T16:37:27.959Z,10.82
2022-09-17T16:39:54.901Z,10.74
2022-09-17T16:42:22.216Z,10.76
2022-09-17T16:44:49.059Z,10.76
2022-09-17T16:47:16.060Z,10.75
2022-09-17T16:49:42.984Z,10.75
2022-09-17T16:52:09.936Z,10.76
2022-09-17T16:54:37.127Z,10.74
2022-09-17T16:57:04.729Z,10.71
2022-09-17T16:59:31.720Z,10.73
2022-09-17T17:01:58.608Z,10.71
2022-09-17T17:04:25.758Z,10.68
2022-09-17T17:06:52.610Z,10.67
2022-09-17T17:09:19.750Z,10.67
2022-09-17T17:11:46.563Z,10.65
2022-09-17T17:14:14.938Z,10.64
2022-09-17T17:16:43.608Z,10.60
2022-09-17T17:19:10.957Z,10.59
2022-09-17T17:21:38.019Z,10.58
2022-09-17T17:24:06.721Z,10.59
2022-09-17T17:26:34.552Z,10.57
2022-09-17T17:29:02.484Z,10.56
2022-09-17T17:31:29.818Z,10.55
2022-09-17T17:33:58.119Z,10.53
2022-09-17T17:36:24.988Z,10.50
2022-09-17T17:39:00.024Z,10.48
2022-09-17T17:41:32.320Z,10.47
2022-09-17T17:43:59.224Z,10.45
2022-09-17T17:46:26.306Z,10.45
2022-09-17T17:48:53.199Z,10.42
2022-09-17T17:51:20.131Z,10.43
2022-09-17T17:53:46.993Z,10.41
2022-09-17T17:56:14.003Z,10.36
2022-09-17T17:58:41.202Z,10.37
2022-09-17T18:01:14.639Z,10.40
2022-09-17T18:03:41.622Z,10.36
2022-09-17T18:06:10.010Z,10.34
2022-09-17T18:08:38.688Z,10.37
2022-09-17T18:11:08.231Z,10.37
2022-09-17T18:13:36.716Z,10.35
2022-09-17T18:16:05.231Z,10.36
2022-09-17T18:18:35.084Z,10.34
2022-09-17T18:21:06.268Z,10.33
2022-09-17T18:23:38.733Z,10.32
2022-09-17T18:26:08.961Z,10.30
2022-09-17T18:28:36.668Z,10.31
2022-09-17T18:31:07.333Z,10.30
2022-09-17T18:33:35.113Z,10.29
2022-09-17T18:36:04.581Z,10.28
2022-09-17T18:38:32.615Z,10.29
2022-09-17T18:41:04.774Z,10.29
2022-09-17T18:43:33.923Z,10.28
2022-09-17T18:46:01.395Z,10.29
2022-09-17T18:48:29.737Z,10.28
2022-09-17T18:51:03.111Z,10.28
2022-09-17T18:53:33.415Z,10.27
2022-09-17T18:56:05.004Z,10.28
2022-09-17T18:58:31.829Z,10.28
2022-09-17T19:00:58.863Z,10.23
2022-09-17T19:03:25.785Z,10.27
2022-09-17T19:05:52.679Z,10.27
2022-09-17T19:08:23.121Z,10.26
2022-09-17T19:10:51.045Z,10.27
2022-09-17T19:13:18.741Z,10.25
2022-09-17T19:15:47.431Z,10.24
2022-09-17T19:18:14.339Z,10.26
2022-09-17T19:20:44.503Z,10.27
2022-09-17T19:23:11.688Z,10.24
2022-09-17T19:25:38.853Z,10.24
2022-09-17T19:28:06.608Z,10.22
2022-09-17T19:30:37.043Z,10.21
2022-09-17T19:33:04.704Z,10.19
2022-09-17T19:35:31.624Z,10.19
2022-09-17T19:37:59.083Z,10.20
2022-09-17T19:40:26.052Z,10.20
2022-09-17T19:42:54.424Z,10.18
2022-09-17T19:45:25.448Z,10.18
2022-09-17T19:47:56.316Z,10.16
2022-09-17T19:50:23.280Z,10.14
2022-09-17T19:52:50.086Z,10.13
2022-09-17T19:55:17.168Z,10.12
2022-09-17T19:57:43.972Z,10.11
2022-09-17T20:00:12.340Z,10.11
2022-09-17T20:02:39.326Z,10.09
2022-09-17T20:05:06.518Z,10.09
2022-09-17T20:07:36.975Z,10.09
2022-09-17T20:10:05.305Z,10.11
2022-09-17T20:12:32.197Z,10.10
2022-09-17T20:14:59.088Z,10.06
2022-09-17T20:17:26.222Z,10.04
2022-09-17T20:19:53.158Z,10.09
2022-09-17T20:22:20.110Z,10.07
2022-09-17T20:24:50.921Z,10.07
2022-09-17T20:27:18.227Z,10.05
2022-09-17T20:29:45.087Z,10.05
2022-09-17T20:32:12.044Z,9.97
2022-09-17T20:34:39.033Z,10.03
2022-09-17T20:37:13.096Z,10.01
2022-09-17T20:39:44.046Z,10.02
2022-09-17T20:42:10.989Z,10.02
2022-09-17T20:44:37.899Z,10.02
2022-09-17T20:47:05.627Z,9.99
2022-09-17T20:49:32.600Z,10.02
2022-09-17T20:52:00.645Z,9.98
2022-09-17T20:54:27.593Z,9.98
2022-09-17T20:56:54.638Z,10.00
2022-09-17T20:59:26.396Z,10.02
2022-09-17T21:02:00.063Z,9.99
2022-09-17T21:04:27.365Z,9.95
2022-09-17T21:07:00.456Z,10.00
2022-09-17T21:09:27.324Z,10.01
2022-09-17T21:11:54.315Z,9.97
2022-09-17T21:14:21.191Z,9.98
2022-09-17T21:16:49.235Z,9.94
2022-09-17T21:19:27.670Z,9.95
2022-09-17T21:21:58.198Z,9.89
2022-09-17T21:24:28.133Z,9.95
2022-09-17T21:26:57.798Z,9.94
2022-09-17T21:29:26.836Z,9.93
2022-09-17T21:31:56.592Z,9.93
2022-09-17T21:34:23.652Z,9.85
2022-09-17T21:36:51.676Z,9.87
2022-09-17T21:39:18.832Z,9.85
2022-09-17T21:41:51.167Z,9.87
2022-09-17T21:44:18.166Z,9.87
2022-09-17T21:46:50.507Z,9.85
2022-09-17T21:49:18.402Z,9.85
2022-09-17T21:51:46.612Z,9.83
2022-09-17T21:54:17.604Z,9.82
2022-09-17T21:56:48.077Z,9.80
2022-09-17T21:59:16.521Z,9.83
2022-09-17T22:01:48.671Z,9.82
2022-09-17T22:04:22.556Z,9.82
2022-09-17T22:06:52.373Z,9.80
2022-09-17T22:09:25.073Z,9.80
2022-09-17T22:11:54.995Z,9.76
2022-09-17T22:14:26.990Z,9.79
2022-09-17T22:16:59.407Z,9.81
2022-09-17T22:19:30.855Z,9.74
2022-09-17T22:22:03.766Z,9.77
2022-09-17T22:24:30.769Z,9.78
2022-09-17T22:26:58.565Z,9.76
2022-09-17T22:29:36.525Z,9.75
2022-09-17T22:32:03.640Z,9.74
2022-09-17T22:34:36.407Z,9.71
2022-09-17T22:37:06.494Z,9.70
2022-09-17T22:39:33.395Z,9.70
2022-09-17T22:42:03.012Z,9.68
2022-09-17T22:44:29.935Z,9.68
2022-09-17T22:47:05.769Z,9.65
2022-09-17T22:49:32.603Z,9.65
2022-09-17T22:51:59.535Z,9.60
2022-09-17T22:54:26.408Z,9.64
2022-09-17T22:56:54.553Z,9.62
2022-09-17T22:59:21.694Z,9.62
2022-09-17T23:01:53.029Z,9.59
2022-09-17T23:04:25.212Z,9.60
2022-09-17T23:06:55.014Z,9.58
2022-09-17T23:09:21.967Z,9.58
2022-09-17T23:11:56.572Z,9.59
2022-09-17T23:14:23.986Z,9.58
2022-09-17T23:16:52.960Z,9.50
2022-09-17T23:19:19.996Z,9.56
2022-09-17T23:21:47.130Z,9.55
2022-09-17T23:24:21.865Z,9.45
2022-09-17T23:26:51.688Z,9.54
2022-09-17T23:29:38.824Z,9.53
2022-09-17T23:32:08.025Z,9.52
2022-09-17T23:34:41.814Z,9.52
2022-09-17T23:37:19.346Z,9.50
2022-09-17T23:39:46.356Z,9.49
2022-09-17T23:42:13.252Z,9.51
2022-09-17T23:44:41.972Z,9.51
2022-09-17T23:47:15.857Z,9.49
2022-09-17T23:49:47.009Z,9.48
2022-09-17T23:52:24.506Z,9.48
2022-09-17T23:54:58.464Z,9.49
2022-09-17T23:57:31.026Z,9.49
